sensor_id;sensor_type;location;lat;lon;timestamp;pressure;altitude;pressure_sealevel;temperature;humidity
24336;BME280;75016;52.400;16.880;2024-02-26T00:01:09;99762.06;;;5.23;93.14
24336;BME280;75016;52.400;16.880;2024-02-26T00:03:54;99761.98;;;5.21;93.27
24336;BME280;75016;52.400;16.880;2024-02-26T00:06:21;99763.52;;;5.17;93.20
24336;BME280;75016;52.400;16.880;2024-02-26T00:08:48;99762.10;;;5.17;93.31
24336;BME280;75016;52.400;16.880;2024-02-26T00:11:14;99760.10;;;5.10;93.15
24336;BME280;75016;52.400;16.880;2024-02-26T00:13:40;99762.66;;;5.09;93.34
24336;BME280;75016;52.400;16.880;2024-02-26T00:16:07;99762.81;;;5.06;93.32
24336;BME280;75016;52.400;16.880;2024-02-26T00:18:34;99760.29;;;5.04;93.33
24336;BME280;75016;52.400;16.880;2024-02-26T00:21:02;99757.01;;;5.01;93.30
24336;BME280;75016;52.400;16.880;2024-02-26T00:23:29;99756.52;;;5.00;93.35
24336;BME280;75016;52.400;16.880;2024-02-26T00:25:55;99756.90;;;4.97;93.29
24336;BME280;75016;52.400;16.880;2024-02-26T00:28:22;99765.09;;;4.99;93.50
24336;BME280;75016;52.400;16.880;2024-02-26T00:30:48;99763.23;;;4.95;93.43
24336;BME280;75016;52.400;16.880;2024-02-26T00:33:16;99762.42;;;4.88;93.25
24336;BME280;75016;52.400;16.880;2024-02-26T00:35:43;99759.33;;;4.92;93.55
24336;BME280;75016;52.400;16.880;2024-02-26T00:38:09;99761.17;;;4.96;93.71
24336;BME280;75016;52.400;16.880;2024-02-26T00:40:36;99760.02;;;4.98;93.55
24336;BME280;75016;52.400;16.880;2024-02-26T00:43:02;99759.86;;;5.01;93.70
24336;BME280;75016;52.400;16.880;2024-02-26T00:45:29;99756.86;;;5.01;93.55
24336;BME280;75016;52.400;16.880;2024-02-26T00:47:58;99756.48;;;4.96;93.29
24336;BME280;75016;52.400;16.880;2024-02-26T00:50:27;99758.84;;;4.89;93.11
24336;BME280;75016;52.400;16.880;2024-02-26T00:52:54;99756.42;;;4.81;92.88
24336;BME280;75016;52.400;16.880;2024-02-26T00:55:20;99748.98;;;4.84;93.16
24336;BME280;75016;52.400;16.880;2024-02-26T00:57:47;99753.00;;;4.90;93.47
24336;BME280;75016;52.400;16.880;2024-02-26T01:00:14;99756.58;;;4.94;93.44
24336;BME280;75016;52.400;16.880;2024-02-26T01:02:40;99756.81;;;4.91;93.12
24336;BME280;75016;52.400;16.880;2024-02-26T01:05:08;99755.16;;;4.81;92.78
24336;BME280;75016;52.400;16.880;2024-02-26T01:07:38;99757.77;;;4.79;92.96
24336;BME280;75016;52.400;16.880;2024-02-26T01:10:06;99758.39;;;4.80;92.92
24336;BME280;75016;52.400;16.880;2024-02-26T01:12:34;99754.80;;;4.75;92.68
24336;BME280;75016;52.400;16.880;2024-02-26T01:15:01;99762.55;;;4.70;92.56
24336;BME280;75016;52.400;16.880;2024-02-26T01:17:29;99756.46;;;4.66;92.58
24336;BME280;75016;52.400;16.880;2024-02-26T01:19:56;99764.89;;;4.61;92.42
24336;BME280;75016;52.400;16.880;2024-02-26T01:22:23;99761.91;;;4.53;92.33
24336;BME280;75016;52.400;16.880;2024-02-26T01:24:50;99753.61;;;4.48;92.30
24336;BME280;75016;52.400;16.880;2024-02-26T01:27:16;99755.40;;;4.42;92.29
24336;BME280;75016;52.400;16.880;2024-02-26T01:29:43;99761.27;;;4.38;92.43
24336;BME280;75016;52.400;16.880;2024-02-26T01:32:10;99757.36;;;4.36;92.50
24336;BME280;75016;52.400;16.880;2024-02-26T01:34:36;99754.55;;;4.33;92.53
24336;BME280;75016;52.400;16.880;2024-02-26T01:37:03;99752.54;;;4.26;92.26
24336;BME280;75016;52.400;16.880;2024-02-26T01:39:30;99751.66;;;4.18;92.31
24336;BME280;75016;52.400;16.880;2024-02-26T01:41:56;99749.88;;;4.15;92.38
24336;BME280;75016;52.400;16.880;2024-02-26T01:44:23;99753.80;;;4.08;92.33
24336;BME280;75016;52.400;16.880;2024-02-26T01:46:49;99755.44;;;4.02;92.35
24336;BME280;75016;52.400;16.880;2024-02-26T01:49:16;99755.35;;;4.03;92.48
24336;BME280;75016;52.400;16.880;2024-02-26T01:51:43;99754.09;;;4.01;92.51
24336;BME280;75016;52.400;16.880;2024-02-26T01:54:10;99751.44;;;3.96;92.55
24336;BME280;75016;52.400;16.880;2024-02-26T01:56:38;99750.95;;;3.92;92.49
24336;BME280;75016;52.400;16.880;2024-02-26T01:59:07;99752.14;;;3.90;92.67
24336;BME280;75016;52.400;16.880;2024-02-26T02:01:35;99753.88;;;3.85;92.53
24336;BME280;75016;52.400;16.880;2024-02-26T02:04:01;99757.92;;;3.84;92.76
24336;BME280;75016;52.400;16.880;2024-02-26T02:06:28;99753.63;;;3.77;92.57
24336;BME280;75016;52.400;16.880;2024-02-26T02:08:55;99755.30;;;3.82;92.87
24336;BME280;75016;52.400;16.880;2024-02-26T02:11:21;99754.19;;;3.82;92.94
24336;BME280;75016;52.400;16.880;2024-02-26T02:13:48;99757.13;;;3.83;93.01
24336;BME280;75016;52.400;16.880;2024-02-26T02:16:15;99759.39;;;3.84;93.00
24336;BME280;75016;52.400;16.880;2024-02-26T02:18:41;99759.31;;;3.76;92.87
24336;BME280;75016;52.400;16.880;2024-02-26T02:21:08;99761.81;;;3.75;92.92
24336;BME280;75016;52.400;16.880;2024-02-26T02:23:35;99763.05;;;3.78;93.07
24336;BME280;75016;52.400;16.880;2024-02-26T02:26:02;99763.14;;;3.73;93.02
24336;BME280;75016;52.400;16.880;2024-02-26T02:28:29;99759.42;;;3.74;92.90
24336;BME280;75016;52.400;16.880;2024-02-26T02:30:56;99763.83;;;3.77;93.09
24336;BME280;75016;52.400;16.880;2024-02-26T02:33:25;99759.86;;;3.84;93.33
24336;BME280;75016;52.400;16.880;2024-02-26T02:35:52;99752.40;;;3.81;93.07
24336;BME280;75016;52.400;16.880;2024-02-26T02:38:21;99755.98;;;3.79;93.05
24336;BME280;75016;52.400;16.880;2024-02-26T02:40:47;99756.35;;;3.82;93.08
24336;BME280;75016;52.400;16.880;2024-02-26T02:43:14;99757.63;;;3.84;93.17
24336;BME280;75016;52.400;16.880;2024-02-26T02:45:41;99753.69;;;3.79;92.98
24336;BME280;75016;52.400;16.880;2024-02-26T02:48:07;99753.22;;;3.81;92.90
24336;BME280;75016;52.400;16.880;2024-02-26T02:50:34;99747.45;;;3.78;92.97
24336;BME280;75016;52.400;16.880;2024-02-26T02:53:00;99753.70;;;3.70;92.67
24336;BME280;75016;52.400;16.880;2024-02-26T02:55:27;99748.55;;;3.63;92.52
24336;BME280;75016;52.400;16.880;2024-02-26T02:57:54;99742.50;;;3.64;92.90
24336;BME280;75016;52.400;16.880;2024-02-26T03:00:20;99738.39;;;3.65;92.73
24336;BME280;75016;52.400;16.880;2024-02-26T03:02:49;99734.30;;;3.57;92.60
24336;BME280;75016;52.400;16.880;2024-02-26T03:05:16;99730.77;;;3.60;92.95
24336;BME280;75016;52.400;16.880;2024-02-26T03:07:42;99726.03;;;3.66;92.98
24336;BME280;75016;52.400;16.880;2024-02-26T03:10:09;99726.76;;;3.63;92.79
24336;BME280;75016;52.400;16.880;2024-02-26T03:12:36;99725.69;;;3.60;92.79
24336;BME280;75016;52.400;16.880;2024-02-26T03:15:02;99723.83;;;3.59;93.01
24336;BME280;75016;52.400;16.880;2024-02-26T03:17:30;99728.30;;;3.55;92.86
24336;BME280;75016;52.400;16.880;2024-02-26T03:19:57;99726.00;;;3.47;92.81
24336;BME280;75016;52.400;16.880;2024-02-26T03:22:24;99730.53;;;3.47;93.05
24336;BME280;75016;52.400;16.880;2024-02-26T03:24:51;99728.46;;;3.50;93.09
24336;BME280;75016;52.400;16.880;2024-02-26T03:27:17;99730.19;;;3.44;92.89
24336;BME280;75016;52.400;16.880;2024-02-26T03:29:44;99731.81;;;3.46;93.15
24336;BME280;75016;52.400;16.880;2024-02-26T03:32:10;99729.69;;;3.50;93.17
24336;BME280;75016;52.400;16.880;2024-02-26T03:34:37;99727.41;;;3.50;93.25
24336;BME280;75016;52.400;16.880;2024-02-26T03:37:05;99729.13;;;3.47;93.28
24336;BME280;75016;52.400;16.880;2024-02-26T03:39:33;99723.86;;;3.53;93.47
24336;BME280;75016;52.400;16.880;2024-02-26T03:42:00;99726.33;;;3.50;93.13
24336;BME280;75016;52.400;16.880;2024-02-26T03:44:27;99728.20;;;3.45;93.09
24336;BME280;75016;52.400;16.880;2024-02-26T03:46:53;99727.96;;;3.43;93.08
24336;BME280;75016;52.400;16.880;2024-02-26T03:49:20;99730.27;;;3.37;92.88
24336;BME280;75016;52.400;16.880;2024-02-26T03:51:46;99730.58;;;3.32;92.79
24336;BME280;75016;52.400;16.880;2024-02-26T03:54:13;99729.52;;;3.32;92.89
24336;BME280;75016;52.400;16.880;2024-02-26T03:56:40;99734.60;;;3.29;92.74
24336;BME280;75016;52.400;16.880;2024-02-26T03:59:06;99734.10;;;3.25;92.74
24336;BME280;75016;52.400;16.880;2024-02-26T04:01:33;99739.03;;;3.25;92.70
24336;BME280;75016;52.400;16.880;2024-02-26T04:04:00;99740.48;;;3.25;92.89
24336;BME280;75016;52.400;16.880;2024-02-26T04:06:26;99746.70;;;3.20;92.76
24336;BME280;75016;52.400;16.880;2024-02-26T04:08:53;99744.28;;;3.20;92.95
24336;BME280;75016;52.400;16.880;2024-02-26T04:11:19;99746.43;;;3.16;92.91
24336;BME280;75016;52.400;16.880;2024-02-26T04:13:46;99740.13;;;3.16;93.03
24336;BME280;75016;52.400;16.880;2024-02-26T04:16:15;99744.46;;;3.10;92.82
24336;BME280;75016;52.400;16.880;2024-02-26T04:18:42;99747.96;;;3.14;93.08
24336;BME280;75016;52.400;16.880;2024-02-26T04:21:09;99746.98;;;3.12;93.00
24336;BME280;75016;52.400;16.880;2024-02-26T04:23:36;99741.70;;;3.13;92.96
24336;BME280;75016;52.400;16.880;2024-02-26T04:26:02;99746.20;;;3.07;92.77
24336;BME280;75016;52.400;16.880;2024-02-26T04:28:30;99748.37;;;3.03;92.87
24336;BME280;75016;52.400;16.880;2024-02-26T04:30:56;99751.44;;;3.05;92.91
24336;BME280;75016;52.400;16.880;2024-02-26T04:33:23;99752.67;;;3.05;92.92
24336;BME280;75016;52.400;16.880;2024-02-26T04:35:49;99753.20;;;3.05;92.84
24336;BME280;75016;52.400;16.880;2024-02-26T04:38:16;99754.94;;;3.05;92.83
24336;BME280;75016;52.400;16.880;2024-02-26T04:40:43;99757.17;;;3.08;93.04
24336;BME280;75016;52.400;16.880;2024-02-26T04:43:09;99752.94;;;3.12;92.94
24336;BME280;75016;52.400;16.880;2024-02-26T04:45:36;99750.14;;;3.09;92.67
24336;BME280;75016;52.400;16.880;2024-02-26T04:48:02;99751.13;;;3.07;92.61
24336;BME280;75016;52.400;16.880;2024-02-26T04:50:29;99752.48;;;3.05;92.56
24336;BME280;75016;52.400;16.880;2024-02-26T04:52:55;99752.48;;;2.96;92.39
24336;BME280;75016;52.400;16.880;2024-02-26T04:55:22;99755.31;;;2.93;92.26
24336;BME280;75016;52.400;16.880;2024-02-26T04:57:49;99755.92;;;2.88;92.43
24336;BME280;75016;52.400;16.880;2024-02-26T05:00:15;99752.71;;;2.80;92.15
24336;BME280;75016;52.400;16.880;2024-02-26T05:02:42;99750.81;;;2.76;92.20
24336;BME280;75016;52.400;16.880;2024-02-26T05:05:08;99749.56;;;2.83;92.59
24336;BME280;75016;52.400;16.880;2024-02-26T05:07:42;99753.88;;;2.87;92.60
24336;BME280;75016;52.400;16.880;2024-02-26T05:10:09;99756.05;;;2.80;92.37
24336;BME280;75016;52.400;16.880;2024-02-26T05:12:36;99754.35;;;2.75;92.46
24336;BME280;75016;52.400;16.880;2024-02-26T05:15:03;99756.25;;;2.82;92.74
24336;BME280;75016;52.400;16.880;2024-02-26T05:17:30;99755.91;;;2.88;92.80
24336;BME280;75016;52.400;16.880;2024-02-26T05:19:57;99750.88;;;2.81;92.60
24336;BME280;75016;52.400;16.880;2024-02-26T05:22:23;99751.13;;;2.77;92.56
24336;BME280;75016;52.400;16.880;2024-02-26T05:24:50;99751.39;;;2.75;92.76
24336;BME280;75016;52.400;16.880;2024-02-26T05:27:18;99759.00;;;2.74;92.75
24336;BME280;75016;52.400;16.880;2024-02-26T05:29:44;99768.29;;;2.77;93.02
24336;BME280;75016;52.400;16.880;2024-02-26T05:32:11;99771.74;;;2.78;92.75
24336;BME280;75016;52.400;16.880;2024-02-26T05:34:37;99773.34;;;2.77;92.96
24336;BME280;75016;52.400;16.880;2024-02-26T05:37:04;99773.18;;;2.87;93.29
24336;BME280;75016;52.400;16.880;2024-02-26T05:39:30;99773.73;;;2.95;93.35
24336;BME280;75016;52.400;16.880;2024-02-26T05:41:57;99781.27;;;3.07;93.54
24336;BME280;75016;52.400;16.880;2024-02-26T05:44:26;99789.57;;;3.25;94.14
24336;BME280;75016;52.400;16.880;2024-02-26T05:46:52;99785.02;;;3.36;94.08
24336;BME280;75016;52.400;16.880;2024-02-26T05:49:19;99793.39;;;3.40;93.93
24336;BME280;75016;52.400;16.880;2024-02-26T05:51:46;99793.77;;;3.42;93.88
24336;BME280;75016;52.400;16.880;2024-02-26T05:54:13;99793.54;;;3.41;93.45
24336;BME280;75016;52.400;16.880;2024-02-26T05:56:40;99788.72;;;3.42;93.46
24336;BME280;75016;52.400;16.880;2024-02-26T05:59:06;99784.56;;;3.41;93.32
24336;BME280;75016;52.400;16.880;2024-02-26T06:01:33;99783.15;;;3.35;93.19
24336;BME280;75016;52.400;16.880;2024-02-26T06:03:59;99781.80;;;3.31;92.98
24336;BME280;75016;52.400;16.880;2024-02-26T06:06:26;99787.61;;;3.28;93.01
24336;BME280;75016;52.400;16.880;2024-02-26T06:08:52;99788.95;;;3.23;92.98
24336;BME280;75016;52.400;16.880;2024-02-26T06:11:19;99786.95;;;3.19;92.79
24336;BME280;75016;52.400;16.880;2024-02-26T06:13:45;99787.41;;;3.17;93.00
24336;BME280;75016;52.400;16.880;2024-02-26T06:16:12;99788.47;;;3.17;93.05
24336;BME280;75016;52.400;16.880;2024-02-26T06:18:39;99789.70;;;3.17;93.25
24336;BME280;75016;52.400;16.880;2024-02-26T06:21:09;99790.15;;;3.15;93.32
24336;BME280;75016;52.400;16.880;2024-02-26T06:23:35;99790.73;;;3.17;93.43
24336;BME280;75016;52.400;16.880;2024-02-26T06:26:02;99791.27;;;3.25;93.78
24336;BME280;75016;52.400;16.880;2024-02-26T06:28:30;99788.98;;;3.29;93.87
24336;BME280;75016;52.400;16.880;2024-02-26T06:30:59;99788.77;;;3.35;94.20
24336;BME280;75016;52.400;16.880;2024-02-26T06:33:25;99786.80;;;3.45;94.46
24336;BME280;75016;52.400;16.880;2024-02-26T06:35:52;99787.55;;;3.56;94.61
24336;BME280;75016;52.400;16.880;2024-02-26T06:38:18;99797.00;;;3.65;94.82
24336;BME280;75016;52.400;16.880;2024-02-26T06:40:46;99794.10;;;3.72;94.94
24336;BME280;75016;52.400;16.880;2024-02-26T06:43:12;99794.88;;;3.80;95.03
24336;BME280;75016;52.400;16.880;2024-02-26T06:45:39;99796.95;;;3.86;95.05
24336;BME280;75016;52.400;16.880;2024-02-26T06:48:06;99796.71;;;3.93;95.22
24336;BME280;75016;52.400;16.880;2024-02-26T06:50:32;99795.76;;;4.00;95.36
24336;BME280;75016;52.400;16.880;2024-02-26T06:52:59;99800.73;;;4.08;95.54
24336;BME280;75016;52.400;16.880;2024-02-26T06:55:25;99804.58;;;4.14;95.45
24336;BME280;75016;52.400;16.880;2024-02-26T06:57:52;99805.30;;;4.22;95.62
24336;BME280;75016;52.400;16.880;2024-02-26T07:00:19;99803.52;;;4.34;95.86
24336;BME280;75016;52.400;16.880;2024-02-26T07:02:45;99804.42;;;4.47;96.13
24336;BME280;75016;52.400;16.880;2024-02-26T07:05:12;99802.61;;;4.62;96.50
24336;BME280;75016;52.400;16.880;2024-02-26T07:07:39;99803.52;;;4.75;96.66
24336;BME280;75016;52.400;16.880;2024-02-26T07:10:06;99802.70;;;4.88;96.72
24336;BME280;75016;52.400;16.880;2024-02-26T07:12:32;99805.14;;;5.02;97.02
24336;BME280;75016;52.400;16.880;2024-02-26T07:15:00;99804.42;;;5.16;96.98
24336;BME280;75016;52.400;16.880;2024-02-26T07:17:27;99808.46;;;5.29;97.14
24336;BME280;75016;52.400;16.880;2024-02-26T07:19:54;99809.17;;;5.37;96.97
24336;BME280;75016;52.400;16.880;2024-02-26T07:22:20;99808.53;;;5.46;96.91
24336;BME280;75016;52.400;16.880;2024-02-26T07:24:47;99802.62;;;5.53;96.87
24336;BME280;75016;52.400;16.880;2024-02-26T07:27:13;99799.21;;;5.57;96.73
24336;BME280;75016;52.400;16.880;2024-02-26T07:29:40;99796.19;;;5.65;96.79
24336;BME280;75016;52.400;16.880;2024-02-26T07:32:06;99803.73;;;5.76;96.80
24336;BME280;75016;52.400;16.880;2024-02-26T07:34:33;99802.98;;;5.79;96.41
24336;BME280;75016;52.400;16.880;2024-02-26T07:37:00;99798.30;;;5.78;96.30
24336;BME280;75016;52.400;16.880;2024-02-26T07:39:26;99797.15;;;5.84;96.26
24336;BME280;75016;52.400;16.880;2024-02-26T07:41:53;99795.02;;;5.87;96.19
24336;BME280;75016;52.400;16.880;2024-02-26T07:44:19;99797.70;;;5.89;96.11
24336;BME280;75016;52.400;16.880;2024-02-26T07:46:46;99797.21;;;5.96;96.24
24336;BME280;75016;52.400;16.880;2024-02-26T07:49:12;99789.20;;;6.03;96.28
24336;BME280;75016;52.400;16.880;2024-02-26T07:51:39;99793.98;;;6.08;96.22
24336;BME280;75016;52.400;16.880;2024-02-26T07:54:05;99794.12;;;6.11;96.17
24336;BME280;75016;52.400;16.880;2024-02-26T07:56:32;99799.31;;;6.20;96.41
24336;BME280;75016;52.400;16.880;2024-02-26T07:58:59;99808.99;;;6.30;96.49
24336;BME280;75016;52.400;16.880;2024-02-26T08:01:25;99818.42;;;6.38;96.51
24336;BME280;75016;52.400;16.880;2024-02-26T08:03:55;99825.69;;;6.51;96.62
24336;BME280;75016;52.400;16.880;2024-02-26T08:06:23;99830.71;;;6.59;96.55
24336;BME280;75016;52.400;16.880;2024-02-26T08:08:51;99834.05;;;6.64;96.25
24336;BME280;75016;52.400;16.880;2024-02-26T08:11:17;99837.83;;;6.70;96.20
24336;BME280;75016;52.400;16.880;2024-02-26T08:13:44;99835.91;;;6.73;95.99
24336;BME280;75016;52.400;16.880;2024-02-26T08:16:11;99831.79;;;6.76;95.85
24336;BME280;75016;52.400;16.880;2024-02-26T08:18:38;99829.96;;;6.82;95.84
24336;BME280;75016;52.400;16.880;2024-02-26T08:21:04;99831.38;;;6.84;95.72
24336;BME280;75016;52.400;16.880;2024-02-26T08:23:31;99832.10;;;6.89;95.65
24336;BME280;75016;52.400;16.880;2024-02-26T08:25:58;99828.64;;;6.88;95.38
24336;BME280;75016;52.400;16.880;2024-02-26T08:28:24;99832.14;;;6.91;95.41
24336;BME280;75016;52.400;16.880;2024-02-26T08:30:51;99831.07;;;6.98;95.59
24336;BME280;75016;52.400;16.880;2024-02-26T08:33:18;99832.32;;;7.03;95.53
24336;BME280;75016;52.400;16.880;2024-02-26T08:35:44;99830.69;;;7.16;95.70
24336;BME280;75016;52.400;16.880;2024-02-26T08:38:11;99828.84;;;7.24;95.63
24336;BME280;75016;52.400;16.880;2024-02-26T08:40:38;99830.57;;;7.29;95.53
24336;BME280;75016;52.400;16.880;2024-02-26T08:43:04;99831.36;;;7.32;95.38
24336;BME280;75016;52.400;16.880;2024-02-26T08:45:31;99833.20;;;7.39;95.41
24336;BME280;75016;52.400;16.880;2024-02-26T08:47:57;99831.66;;;7.43;95.43
24336;BME280;75016;52.400;16.880;2024-02-26T08:50:25;99834.07;;;7.53;95.53
24336;BME280;75016;52.400;16.880;2024-02-26T08:52:52;99835.22;;;7.63;95.56
24336;BME280;75016;52.400;16.880;2024-02-26T08:55:19;99837.20;;;7.73;95.39
24336;BME280;75016;52.400;16.880;2024-02-26T08:57:47;99834.62;;;7.83;95.19
24336;BME280;75016;52.400;16.880;2024-02-26T09:00:14;99838.36;;;7.92;95.12
24336;BME280;75016;52.400;16.880;2024-02-26T09:02:41;99836.84;;;7.95;94.85
24336;BME280;75016;52.400;16.880;2024-02-26T09:05:10;99834.82;;;7.99;94.82
24336;BME280;75016;52.400;16.880;2024-02-26T09:07:36;99835.67;;;8.06;94.74
24336;BME280;75016;52.400;16.880;2024-02-26T09:10:03;99836.64;;;8.14;94.72
24336;BME280;75016;52.400;16.880;2024-02-26T09:12:30;99838.30;;;8.23;94.67
24336;BME280;75016;52.400;16.880;2024-02-26T09:14:57;99840.96;;;8.27;94.55
24336;BME280;75016;52.400;16.880;2024-02-26T09:17:24;99842.52;;;8.31;94.43
24336;BME280;75016;52.400;16.880;2024-02-26T09:19:50;99836.58;;;8.40;94.40
24336;BME280;75016;52.400;16.880;2024-02-26T09:22:17;99827.64;;;8.48;94.47
24336;BME280;75016;52.400;16.880;2024-02-26T09:24:43;99826.99;;;8.56;94.36
24336;BME280;75016;52.400;16.880;2024-02-26T09:27:10;99829.24;;;8.61;94.23
24336;BME280;75016;52.400;16.880;2024-02-26T09:29:36;99826.50;;;8.67;94.11
24336;BME280;75016;52.400;16.880;2024-02-26T09:32:03;99826.26;;;8.75;94.13
24336;BME280;75016;52.400;16.880;2024-02-26T09:34:30;99825.39;;;8.81;94.09
24336;BME280;75016;52.400;16.880;2024-02-26T09:36:56;99826.05;;;8.90;94.09
24336;BME280;75016;52.400;16.880;2024-02-26T09:39:23;99828.79;;;9.02;94.09
24336;BME280;75016;52.400;16.880;2024-02-26T09:41:50;99829.77;;;9.16;93.99
24336;BME280;75016;52.400;16.880;2024-02-26T09:44:20;99830.27;;;9.25;93.62
24336;BME280;75016;52.400;16.880;2024-02-26T09:46:47;99830.29;;;9.31;93.47
24336;BME280;75016;52.400;16.880;2024-02-26T09:49:15;99830.63;;;9.40;93.37
24336;BME280;75016;52.400;16.880;2024-02-26T09:51:42;99828.77;;;9.48;93.05
24336;BME280;75016;52.400;16.880;2024-02-26T09:54:13;99832.56;;;9.53;92.78
24336;BME280;75016;52.400;16.880;2024-02-26T09:56:40;99835.23;;;9.61;92.62
24336;BME280;75016;52.400;16.880;2024-02-26T09:59:10;99835.29;;;9.72;92.52
24336;BME280;75016;52.400;16.880;2024-02-26T10:01:40;99839.83;;;9.81;92.24
24336;BME280;75016;52.400;16.880;2024-02-26T10:04:08;99834.34;;;9.89;92.04
24336;BME280;75016;52.400;16.880;2024-02-26T10:06:36;99831.84;;;9.99;91.85
24336;BME280;75016;52.400;16.880;2024-02-26T10:09:03;99831.44;;;10.08;91.49
24336;BME280;75016;52.400;16.880;2024-02-26T10:11:33;99829.11;;;10.15;91.20
24336;BME280;75016;52.400;16.880;2024-02-26T10:14:00;99827.18;;;10.21;90.83
24336;BME280;75016;52.400;16.880;2024-02-26T10:16:26;99826.85;;;10.27;90.77
24336;BME280;75016;52.400;16.880;2024-02-26T10:18:54;99829.12;;;10.36;90.83
24336;BME280;75016;52.400;16.880;2024-02-26T10:21:21;99834.90;;;10.40;90.65
24336;BME280;75016;52.400;16.880;2024-02-26T10:23:49;99836.66;;;10.49;90.60
24336;BME280;75016;52.400;16.880;2024-02-26T10:26:16;99832.66;;;10.56;90.47
24336;BME280;75016;52.400;16.880;2024-02-26T10:28:44;99830.55;;;10.66;90.27
24336;BME280;75016;52.400;16.880;2024-02-26T10:31:11;99834.84;;;10.78;90.11
24336;BME280;75016;52.400;16.880;2024-02-26T10:33:38;99836.11;;;10.87;89.95
24336;BME280;75016;52.400;16.880;2024-02-26T10:36:06;99833.23;;;10.98;89.77
24336;BME280;75016;52.400;16.880;2024-02-26T10:38:35;99829.71;;;11.05;89.57
24336;BME280;75016;52.400;16.880;2024-02-26T10:41:03;99820.37;;;11.14;89.51
24336;BME280;75016;52.400;16.880;2024-02-26T10:43:29;99820.92;;;11.24;89.20
24336;BME280;75016;52.400;16.880;2024-02-26T10:45:56;99822.83;;;11.34;89.16
24336;BME280;75016;52.400;16.880;2024-02-26T10:48:23;99827.15;;;11.45;88.89
24336;BME280;75016;52.400;16.880;2024-02-26T10:50:50;99827.79;;;11.57;88.23
24336;BME280;75016;52.400;16.880;2024-02-26T10:53:20;99831.09;;;11.62;87.68
24336;BME280;75016;52.400;16.880;2024-02-26T10:55:59;99830.68;;;11.74;87.45
24336;BME280;75016;52.400;16.880;2024-02-26T10:58:28;99831.38;;;11.90;87.23
24336;BME280;75016;52.400;16.880;2024-02-26T11:00:56;99828.34;;;12.04;87.13
24336;BME280;75016;52.400;16.880;2024-02-26T11:03:24;99826.58;;;12.15;86.83
24336;BME280;75016;52.400;16.880;2024-02-26T11:05:51;99827.68;;;12.26;86.53
24336;BME280;75016;52.400;16.880;2024-02-26T11:08:19;99830.92;;;12.31;85.39
24336;BME280;75016;52.400;16.880;2024-02-26T11:10:53;99828.85;;;12.36;85.23
24336;BME280;75016;52.400;16.880;2024-02-26T11:13:21;99831.96;;;12.48;85.34
24336;BME280;75016;52.400;16.880;2024-02-26T11:15:50;99828.85;;;12.60;84.91
24336;BME280;75016;52.400;16.880;2024-02-26T11:18:19;99823.29;;;12.62;83.83
24336;BME280;75016;52.400;16.880;2024-02-26T11:20:47;99818.08;;;12.65;83.26
24336;BME280;75016;52.400;16.880;2024-02-26T11:23:14;99821.47;;;12.66;82.82
24336;BME280;75016;52.400;16.880;2024-02-26T11:25:41;99816.98;;;12.74;82.72
24336;BME280;75016;52.400;16.880;2024-02-26T11:28:11;99815.23;;;12.76;82.28
24336;BME280;75016;52.400;16.880;2024-02-26T11:30:47;99812.05;;;12.83;82.45
24336;BME280;75016;52.400;16.880;2024-02-26T11:33:15;99816.15;;;12.90;82.41
24336;BME280;75016;52.400;16.880;2024-02-26T11:35:42;99813.77;;;12.96;81.63
24336;BME280;75016;52.400;16.880;2024-02-26T11:38:17;99813.58;;;12.98;80.99
24336;BME280;75016;52.400;16.880;2024-02-26T11:40:46;99813.44;;;13.06;80.96
24336;BME280;75016;52.400;16.880;2024-02-26T11:43:13;99810.73;;;13.21;80.97
24336;BME280;75016;52.400;16.880;2024-02-26T11:48:20;99813.41;;;13.34;80.01
24336;BME280;75016;52.400;16.880;2024-02-26T11:50:49;99815.42;;;13.48;79.42
24336;BME280;75016;52.400;16.880;2024-02-26T11:58:41;99812.77;;;13.88;78.49
24336;BME280;75016;52.400;16.880;2024-02-26T12:01:43;99810.98;;;13.99;78.30
24336;BME280;75016;52.400;16.880;2024-02-26T12:04:26;99811.77;;;14.18;78.09
24336;BME280;75016;52.400;16.880;2024-02-26T12:06:57;99811.99;;;14.34;77.53
24336;BME280;75016;52.400;16.880;2024-02-26T12:12:04;99809.59;;;14.51;76.62
24336;BME280;75016;52.400;16.880;2024-02-26T12:14:39;99808.85;;;14.62;76.46
24336;BME280;75016;52.400;16.880;2024-02-26T12:17:07;99807.20;;;14.70;75.75
24336;BME280;75016;52.400;16.880;2024-02-26T12:19:35;99806.80;;;14.75;75.20
24336;BME280;75016;52.400;16.880;2024-02-26T12:22:03;99808.49;;;14.86;74.83
24336;BME280;75016;52.400;16.880;2024-02-26T12:24:32;99805.70;;;14.99;74.31
24336;BME280;75016;52.400;16.880;2024-02-26T12:26:59;99807.71;;;15.00;73.47
24336;BME280;75016;52.400;16.880;2024-02-26T12:29:25;99809.02;;;15.00;73.27
24336;BME280;75016;52.400;16.880;2024-02-26T12:31:52;99807.02;;;15.05;72.90
24336;BME280;75016;52.400;16.880;2024-02-26T12:34:19;99811.86;;;15.11;73.06
24336;BME280;75016;52.400;16.880;2024-02-26T12:36:46;99815.16;;;15.24;73.01
24336;BME280;75016;52.400;16.880;2024-02-26T12:39:12;99816.99;;;15.34;72.86
24336;BME280;75016;52.400;16.880;2024-02-26T12:41:39;99817.77;;;15.46;72.68
24336;BME280;75016;52.400;16.880;2024-02-26T12:44:07;99814.88;;;15.49;72.14
24336;BME280;75016;52.400;16.880;2024-02-26T12:46:34;99814.21;;;15.43;71.16
24336;BME280;75016;52.400;16.880;2024-02-26T12:49:01;99813.98;;;15.43;70.94
24336;BME280;75016;52.400;16.880;2024-02-26T12:51:27;99813.78;;;15.46;70.92
24336;BME280;75016;52.400;16.880;2024-02-26T12:53:55;99814.70;;;15.56;70.78
24336;BME280;75016;52.400;16.880;2024-02-26T12:56:22;99814.03;;;15.62;70.31
24336;BME280;75016;52.400;16.880;2024-02-26T12:58:50;99810.55;;;15.65;70.23
24336;BME280;75016;52.400;16.880;2024-02-26T13:01:23;99811.30;;;15.60;69.68
24336;BME280;75016;52.400;16.880;2024-02-26T13:03:51;99807.88;;;15.53;69.76
24336;BME280;75016;52.400;16.880;2024-02-26T13:06:19;99807.41;;;15.51;69.81
24336;BME280;75016;52.400;16.880;2024-02-26T13:08:46;99811.42;;;15.57;69.96